Time;durP1;ratioP1;P1;durP2;ratioP2;P2;SDS_P1;SDS_P2;PMS_P1;PMS_P2;Temp;Humidity;BMP_temperature;BMP_pressure;BME280_temperature;BME280_humidity;BME280_pressure;Samples;Min_cycle;Max_cycle;Signal;HPM_P1;HPM_P2
2023/01/22 00:01:07;;;;;;;3.77;2.70;;;;;;;-1.15;100.00;101704.19;5012958;28;20221;-72
2023/01/22 00:03:34;;;;;;;3.93;2.67;;;;;;;-1.16;100.00;101710.13;5014532;28;20283;-72
2023/01/22 00:06:00;;;;;;;4.40;3.00;;;;;;;-1.15;100.00;101701.63;4991009;28;20461;-72
2023/01/22 00:08:26;;;;;;;3.63;2.50;;;;;;;-1.15;100.00;101706.75;5006879;28;20200;-72
2023/01/22 00:10:54;;;;;;;4.23;2.90;;;;;;;-1.16;100.00;101711.00;5006502;28;20196;-72
2023/01/22 00:13:22;;;;;;;4.23;2.63;;;;;;;-1.15;100.00;101715.28;5008138;28;20196;-72
2023/01/22 00:15:50;;;;;;;2.90;2.33;;;;;;;-1.16;100.00;101716.09;5009392;28;20205;-72
2023/01/22 00:18:17;;;;;;;5.73;2.80;;;;;;;-1.15;100.00;101720.41;5005871;28;20220;-72
2023/01/22 00:20:47;;;;;;;5.23;3.10;;;;;;;-1.15;100.00;101720.41;5003008;28;20597;-72
2023/01/22 00:23:13;;;;;;;5.10;2.60;;;;;;;-1.15;100.00;101722.97;5007037;28;20275;-72
2023/01/22 00:25:40;;;;;;;3.40;2.70;;;;;;;-1.16;100.00;101723.78;5010005;28;20204;-72
2023/01/22 00:28:06;;;;;;;4.20;2.50;;;;;;;-1.15;100.00;101728.06;5007857;28;20216;-72
2023/01/22 00:30:33;;;;;;;5.33;3.10;;;;;;;-1.14;100.00;101728.97;4991930;28;20220;-72
2023/01/22 00:33:01;;;;;;;6.07;2.97;;;;;;;-1.15;100.00;101729.78;5008964;28;20200;-72
2023/01/22 00:35:28;;;;;;;3.87;2.57;;;;;;;-1.16;100.00;101734.03;5009970;28;20674;-72
2023/01/22 00:37:54;;;;;;;5.60;3.10;;;;;;;-1.15;100.00;101729.78;4986613;28;20221;-72
2023/01/22 00:40:21;;;;;;;3.87;2.70;;;;;;;-1.15;100.00;101735.75;4988302;28;20316;-71
2023/01/22 00:42:47;;;;;;;3.83;2.80;;;;;;;-1.13;100.00;101735.81;4988601;28;20200;-72
2023/01/22 00:45:14;;;;;;;3.53;2.93;;;;;;;-1.13;100.00;101740.94;5016966;28;20282;-72
2023/01/22 00:47:41;;;;;;;4.43;3.00;;;;;;;-1.12;100.00;101740.13;5007304;28;20204;-71
2023/01/22 00:50:11;;;;;;;4.20;2.73;;;;;;;-1.12;100.00;101742.69;4994313;28;20248;-72
2023/01/22 00:52:37;;;;;;;2.90;2.60;;;;;;;-1.10;100.00;101742.75;5001884;28;20201;-72
2023/01/22 00:55:04;;;;;;;4.47;3.60;;;;;;;-1.09;100.00;101744.50;5008899;28;20597;-72
2023/01/22 00:57:30;;;;;;;4.90;2.93;;;;;;;-1.10;100.00;101753.88;4990756;28;20217;-71
2023/01/22 00:59:58;;;;;;;3.37;2.60;;;;;;;-1.10;100.00;101748.75;5024227;28;20217;-72
2023/01/22 01:02:25;;;;;;;5.43;3.17;;;;;;;-1.09;100.00;101749.63;4989736;28;20212;-72
2023/01/22 01:04:52;;;;;;;3.90;2.80;;;;;;;-1.07;100.00;101740.31;5007770;28;20189;-71
2023/01/22 01:07:20;;;;;;;3.63;3.03;;;;;;;-1.08;100.00;101746.25;5007957;28;20209;-72
2023/01/22 01:09:46;;;;;;;3.97;2.97;;;;;;;-1.09;100.00;101732.59;5008388;28;20217;-72
2023/01/22 01:12:13;;;;;;;4.97;2.70;;;;;;;-1.10;100.00;101733.38;4987970;28;20205;-71
2023/01/22 01:14:39;;;;;;;4.83;3.30;;;;;;;-1.07;100.00;101740.31;5009264;28;20213;-72
2023/01/22 01:17:06;;;;;;;3.30;2.90;;;;;;;-1.07;100.00;101746.31;4994660;28;20551;-72
2023/01/22 01:19:32;;;;;;;4.67;3.53;;;;;;;-1.07;100.00;101746.31;4990145;28;20270;-71
2023/01/22 01:21:58;;;;;;;4.40;3.07;;;;;;;-1.07;100.00;101747.97;4990698;28;20228;-71
2023/01/22 01:24:26;;;;;;;5.73;3.23;;;;;;;-1.10;100.00;101748.75;4992488;28;20208;-71
2023/01/22 01:26:53;;;;;;;5.30;3.23;;;;;;;-1.09;100.00;101745.38;5011714;28;20199;-71
2023/01/22 01:29:19;;;;;;;3.70;3.17;;;;;;;-1.07;100.00;101745.41;4991606;28;20233;-72
2023/01/22 01:31:46;;;;;;;4.10;3.03;;;;;;;-1.08;100.00;101741.13;4989409;28;20205;-71
2023/01/22 01:34:14;;;;;;;5.13;3.67;;;;;;;-1.08;100.00;101741.13;4987312;28;20197;-72
2023/01/22 01:36:41;;;;;;;3.90;3.20;;;;;;;-1.09;100.00;101745.38;4988690;28;20254;-71
2023/01/22 01:39:09;;;;;;;4.93;3.03;;;;;;;-1.08;100.00;101743.69;5007902;28;20221;-71
2023/01/22 01:41:37;;;;;;;4.50;2.97;;;;;;;-1.09;100.00;101732.59;5009586;28;20516;-72
2023/01/22 01:44:10;;;;;;;3.60;2.90;;;;;;;-1.08;100.00;101736.00;4992999;28;20199;-72
2023/01/22 01:46:40;;;;;;;3.67;2.67;;;;;;;-1.08;100.00;101743.69;4992778;28;20692;-71
2023/01/22 01:49:16;;;;;;;3.33;2.87;;;;;;;-1.07;100.00;101737.75;5025752;28;20629;-72
2023/01/22 01:51:43;;;;;;;4.63;3.27;;;;;;;-1.07;100.00;101738.63;5001464;28;20212;-71
2023/01/22 01:54:10;;;;;;;4.83;3.30;;;;;;;-1.07;100.00;101743.75;4988871;28;20517;-71
2023/01/22 01:56:42;;;;;;;4.57;3.37;;;;;;;-1.07;100.00;101743.75;4989631;28;20208;-71
2023/01/22 01:59:12;;;;;;;4.77;3.40;;;;;;;-1.06;100.00;101745.47;5002300;28;20225;-72
2023/01/22 02:01:40;;;;;;;3.87;2.73;;;;;;;-1.06;100.00;101747.19;5019655;28;20217;-72
2023/01/22 02:04:07;;;;;;;3.27;2.80;;;;;;;-1.05;100.00;101743.81;5022862;28;20204;-71
2023/01/22 02:06:33;;;;;;;4.10;2.90;;;;;;;-1.05;100.00;101756.63;4991685;28;20205;-72
2023/01/22 02:09:00;;;;;;;3.87;3.27;;;;;;;-1.05;100.00;101757.47;5004753;28;20216;-71
2023/01/22 02:11:28;;;;;;;3.60;3.20;;;;;;;-1.04;100.00;101754.13;5006836;28;20191;-72
2023/01/22 02:13:59;;;;;;;5.17;3.13;;;;;;;-1.02;100.00;101754.16;5005841;28;20204;-72
2023/01/22 02:16:27;;;;;;;3.90;3.17;;;;;;;-1.03;100.00;101753.28;4995182;28;20192;-71
2023/01/22 02:18:58;;;;;;;6.93;3.27;;;;;;;-1.03;100.00;101755.00;5004976;28;20690;-71
2023/01/22 02:21:32;;;;;;;4.73;3.60;;;;;;;-1.03;100.00;101758.41;4989926;28;20196;-71
2023/01/22 02:23:59;;;;;;;5.40;3.40;;;;;;;-1.02;100.00;101757.63;5022501;28;20315;-71
2023/01/22 02:26:27;;;;;;;5.33;3.17;;;;;;;-1.01;100.00;101764.47;5005509;28;20196;-72
2023/01/22 02:28:53;;;;;;;6.80;3.37;;;;;;;-1.02;100.00;101767.84;4989007;28;20217;-72
2023/01/22 02:31:24;;;;;;;4.50;3.40;;;;;;;-1.00;100.00;101770.47;4989728;28;20732;-72
2023/01/22 02:33:50;;;;;;;4.03;3.20;;;;;;;-1.01;100.00;101763.59;5006567;28;20316;-71
2023/01/22 02:36:20;;;;;;;6.73;4.30;;;;;;;-1.00;100.00;101768.78;4989785;28;20197;-71
2023/01/22 02:38:49;;;;;;;5.37;3.57;;;;;;;-0.99;100.00;101767.94;4992565;28;20259;-71
2023/01/22 02:41:16;;;;;;;7.10;3.93;;;;;;;-1.00;100.00;101762.78;4987797;28;20200;-71
2023/01/22 02:43:43;;;;;;;5.73;3.47;;;;;;;-1.00;100.00;101765.34;4983934;28;20455;-72
2023/01/22 02:46:09;;;;;;;7.60;4.77;;;;;;;-1.01;100.00;101767.03;4990259;28;20205;-71
2023/01/22 02:48:36;;;;;;;8.17;4.83;;;;;;;-1.00;100.00;101767.91;5021876;28;20203;-71
2023/01/22 02:51:06;;;;;;;6.93;4.07;;;;;;;-1.00;100.00;101768.78;4995057;28;20204;-71
2023/01/22 02:53:32;;;;;;;6.87;4.20;;;;;;;-1.00;100.00;101773.03;5007943;28;20200;-71
2023/01/22 02:56:04;;;;;;;7.73;3.83;;;;;;;-1.00;100.00;101767.91;4992894;28;20205;-71
2023/01/22 02:58:31;;;;;;;7.37;4.77;;;;;;;-1.01;100.00;101772.13;5017935;28;20306;-72
2023/01/22 03:01:07;;;;;;;6.33;4.70;;;;;;;-1.01;100.00;101774.69;4990333;28;20299;-71
2023/01/22 03:03:33;;;;;;;5.13;4.23;;;;;;;-1.02;100.00;101772.06;4998005;28;20196;-72
2023/01/22 03:06:00;;;;;;;4.93;3.90;;;;;;;-1.02;100.00;101774.63;5009508;28;20302;-71
2023/01/22 03:08:26;;;;;;;5.63;4.00;;;;;;;-1.02;100.00;101772.06;5010810;28;20736;-71
2023/01/22 03:10:57;;;;;;;5.27;3.77;;;;;;;-1.03;100.00;101781.44;4992866;28;20192;-71
2023/01/22 03:21:42;;;;;;;6.20;4.13;;;;;;;-1.03;100.00;101781.44;5007076;28;20250;-71
2023/01/22 03:24:10;;;;;;;6.47;4.23;;;;;;;-1.03;100.00;101791.69;5011058;28;20825;-71
2023/01/22 03:26:37;;;;;;;6.03;4.27;;;;;;;-1.03;100.00;101789.13;5022718;28;20204;-71
2023/01/22 03:29:05;;;;;;;7.97;4.87;;;;;;;-1.01;100.00;101789.19;4987771;28;20303;-71
2023/01/22 03:31:31;;;;;;;5.30;3.63;;;;;;;-1.03;100.00;101789.13;4987745;28;20201;-71
2023/01/22 03:33:58;;;;;;;8.53;4.20;;;;;;;-1.01;100.00;101786.63;5013887;28;20207;-71
2023/01/22 03:36:25;;;;;;;5.47;4.13;;;;;;;-1.01;100.00;101784.94;4993063;28;20190;-71
2023/01/22 03:38:56;;;;;;;8.67;4.47;;;;;;;-1.00;100.00;101790.97;5019055;28;20229;-72
2023/01/22 03:41:24;;;;;;;6.53;4.30;;;;;;;-1.01;100.00;101789.19;4992777;28;20201;-72
2023/01/22 03:43:51;;;;;;;7.13;4.60;;;;;;;-1.01;100.00;101792.63;5006999;28;20267;-71
2023/01/22 03:46:22;;;;;;;5.27;3.70;;;;;;;-1.01;100.00;101795.19;4993135;28;20696;-72
2023/01/22 03:48:53;;;;;;;8.10;4.63;;;;;;;-1.01;100.00;101790.06;4993101;28;20220;-71
2023/01/22 03:51:21;;;;;;;6.00;4.30;;;;;;;-1.03;100.00;101799.38;5007770;28;20201;-72
2023/01/22 03:53:48;;;;;;;6.90;4.53;;;;;;;-1.01;100.00;101794.31;5002492;28;20211;-71
2023/01/22 03:56:16;;;;;;;8.90;4.60;;;;;;;-1.01;100.00;101802.88;5009739;28;20205;-71
2023/01/22 03:58:44;;;;;;;7.83;4.93;;;;;;;-1.01;100.00;101807.97;5024951;28;20225;-71
2023/01/22 04:01:13;;;;;;;6.40;4.83;;;;;;;-1.01;100.00;101809.69;4987752;28;20235;-71
2023/01/22 04:03:41;;;;;;;6.13;4.53;;;;;;;-1.00;100.00;101814.00;5024704;28;20205;-72
2023/01/22 04:06:10;;;;;;;7.07;4.97;;;;;;;-1.01;100.00;101810.53;5004334;28;20256;-72
2023/01/22 04:08:42;;;;;;;8.77;5.13;;;;;;;-1.00;100.00;101817.44;4992775;28;20220;-72
2023/01/22 04:11:09;;;;;;;8.63;4.70;;;;;;;-1.01;100.00;101813.09;5008681;28;20227;-72
2023/01/22 04:13:38;;;;;;;8.43;4.87;;;;;;;-0.99;100.00;101823.41;4994420;28;20292;-72
2023/01/22 04:16:06;;;;;;;7.87;4.83;;;;;;;-1.00;100.00;101820.00;5008545;28;20589;-72
2023/01/22 04:18:52;;;;;;;7.37;4.73;;;;;;;-1.00;100.00;101827.66;5012405;28;20858;-72
2023/01/22 04:21:26;;;;;;;9.00;4.33;;;;;;;-1.00;100.00;101829.38;4995867;28;20196;-71
2023/01/22 04:23:56;;;;;;;7.90;4.90;;;;;;;-1.01;100.00;101835.28;4992456;28;20204;-72
2023/01/22 04:26:22;;;;;;;8.73;5.30;;;;;;;-1.00;100.00;101837.91;4997564;28;20217;-72
2023/01/22 04:28:49;;;;;;;10.33;5.03;;;;;;;-1.00;100.00;101842.16;5008937;28;20216;-72
2023/01/22 04:31:18;;;;;;;10.37;5.57;;;;;;;-1.01;100.00;101843.81;4988930;28;20208;-72
2023/01/22 04:34:00;;;;;;;11.67;5.90;;;;;;;-1.00;100.00;101837.91;5020580;28;20251;-71
2023/01/22 04:36:32;;;;;;;9.80;5.37;;;;;;;-1.00;100.00;101843.03;5005783;28;21039;-72
2023/01/22 04:38:58;;;;;;;9.30;5.63;;;;;;;-0.99;100.00;101849.00;5022190;28;20224;-72
2023/01/22 04:41:24;;;;;;;9.67;6.00;;;;;;;-1.00;100.00;101850.72;4990197;28;20207;-72
2023/01/22 04:43:51;;;;;;;11.43;6.27;;;;;;;-1.00;100.00;101845.59;5023166;28;20446;-72
2023/01/22 04:46:23;;;;;;;11.70;6.03;;;;;;;-0.99;100.00;101851.56;4991662;28;20674;-72
2023/01/22 04:48:52;;;;;;;9.60;5.87;;;;;;;-1.00;100.00;101845.59;4991269;28;20586;-72
2023/01/22 04:51:22;;;;;;;14.37;7.27;;;;;;;-1.00;100.00;101849.84;4991511;28;20673;-72
2023/01/22 04:53:48;;;;;;;11.23;6.23;;;;;;;-1.00;100.00;101850.72;4989958;28;20256;-72
2023/01/22 04:56:17;;;;;;;11.43;6.67;;;;;;;-1.00;100.00;101850.72;4994166;28;20196;-72
2023/01/22 04:58:43;;;;;;;14.80;7.87;;;;;;;-0.99;100.00;101851.56;4993711;28;20228;-72
2023/01/22 05:01:10;;;;;;;15.67;8.33;;;;;;;-0.99;100.00;101862.69;5019429;28;20266;-71
2023/01/22 05:03:36;;;;;;;20.70;9.80;;;;;;;-0.99;100.00;101862.69;5005626;28;20221;-72
2023/01/22 05:06:06;;;;;;;12.90;7.10;;;;;;;-0.98;100.00;101859.31;5007483;28;20204;-72
2023/01/22 05:08:37;;;;;;;15.80;9.00;;;;;;;-0.98;100.00;101863.56;4997493;28;20205;-71
2023/01/22 05:11:03;;;;;;;14.03;6.83;;;;;;;-0.98;100.00;101867.00;5008267;28;20197;-72
2023/01/22 05:13:50;;;;;;;11.47;7.93;;;;;;;-0.98;100.00;101859.31;4993601;28;20290;-72
2023/01/22 05:16:17;;;;;;;13.07;7.20;;;;;;;-0.98;100.00;101856.75;4988398;28;20562;-72
2023/01/22 05:18:44;;;;;;;14.20;7.47;;;;;;;-0.98;100.00;101859.31;5008601;28;20271;-72
2023/01/22 05:21:10;;;;;;;13.57;6.93;;;;;;;-0.98;100.00;101863.56;5007146;28;20228;-71
2023/01/22 05:23:38;;;;;;;11.50;6.73;;;;;;;-0.98;100.00;101864.44;4990290;28;20665;-72
2023/01/22 05:26:06;;;;;;;16.67;7.33;;;;;;;-0.99;100.00;101865.25;5009004;28;20295;-72
2023/01/22 05:28:42;;;;;;;13.37;7.10;;;;;;;-0.99;100.00;101867.81;5004118;28;20296;-72
2023/01/22 05:31:32;;;;;;;15.53;7.87;;;;;;;-0.99;100.00;101867.81;5004949;28;20219;-72
2023/01/22 05:34:05;;;;;;;13.40;7.83;;;;;;;-0.99;100.00;101870.34;5006954;28;20576;-72
2023/01/22 05:36:32;;;;;;;13.83;7.33;;;;;;;-0.97;100.00;101876.44;5006298;28;20215;-72
2023/01/22 05:39:05;;;;;;;14.40;6.90;;;;;;;-0.96;100.00;101874.75;5005144;28;20230;-72
2023/01/22 05:41:33;;;;;;;14.90;7.13;;;;;;;-0.96;100.00;101877.31;4987784;28;20209;-72
2023/01/22 05:44:01;;;;;;;14.13;7.43;;;;;;;-0.96;100.00;101872.19;5002091;28;20228;-72
2023/01/22 05:46:28;;;;;;;15.50;8.03;;;;;;;-0.97;100.00;101881.56;4993620;28;20655;-72
2023/01/22 05:49:13;;;;;;;16.37;7.97;;;;;;;-0.96;100.00;101890.13;5008351;28;20212;-71
2023/01/22 05:51:40;;;;;;;16.97;8.17;;;;;;;-0.96;100.00;101887.56;4989744;28;20236;-72
2023/01/22 05:54:09;;;;;;;15.13;7.60;;;;;;;-0.94;100.00;101885.06;4988021;28;20289;-71
2023/01/22 05:56:38;;;;;;;16.90;7.13;;;;;;;-0.96;100.00;101897.78;5023180;28;20311;-72
2023/01/22 05:59:04;;;;;;;13.97;6.60;;;;;;;-0.97;100.00;101886.69;5011249;28;20329;-73
2023/01/22 06:01:31;;;;;;;10.83;7.03;;;;;;;-0.97;100.00;101884.13;5009711;28;20303;-73
2023/01/22 06:03:59;;;;;;;11.10;6.60;;;;;;;-0.96;100.00;101893.53;5002347;28;20200;-73
2023/01/22 06:06:26;;;;;;;13.33;6.33;;;;;;;-0.96;100.00;101890.97;4991228;28;20665;-73
2023/01/22 06:08:54;;;;;;;13.53;7.40;;;;;;;-0.96;100.00;101893.53;5018517;28;20622;-73
2023/01/22 06:11:24;;;;;;;13.13;6.90;;;;;;;-0.95;100.00;101896.97;4990716;28;20208;-72
2023/01/22 06:13:51;;;;;;;11.43;6.50;;;;;;;-0.94;100.00;101898.72;5001669;28;20741;-73
2023/01/22 06:16:19;;;;;;;10.33;6.30;;;;;;;-0.94;100.00;101901.28;4991747;28;20283;-72
2023/01/22 06:19:00;;;;;;;9.20;6.20;;;;;;;-0.94;100.00;101908.97;4989185;28;20220;-73
2023/01/22 06:21:33;;;;;;;8.53;5.83;;;;;;;-0.93;100.00;101904.72;4986314;28;20648;-72
2023/01/22 06:24:00;;;;;;;11.17;6.30;;;;;;;-0.94;100.00;101908.09;4990395;28;20212;-72
2023/01/22 06:26:32;;;;;;;9.90;6.00;;;;;;;-0.92;100.00;101909.03;5021864;28;20751;-73
2023/01/22 06:29:00;;;;;;;11.97;6.83;;;;;;;-0.93;100.00;101914.97;4997154;28;20235;-72
2023/01/22 06:31:29;;;;;;;10.07;6.20;;;;;;;-0.93;100.00;101915.84;4993358;28;20196;-72
2023/01/22 06:33:57;;;;;;;11.47;6.67;;;;;;;-0.93;100.00;101925.19;5023171;28;20588;-72
2023/01/22 06:36:23;;;;;;;10.23;6.60;;;;;;;-0.94;100.00;101926.03;5010764;28;20211;-72
2023/01/22 06:38:50;;;;;;;11.23;6.33;;;;;;;-0.94;100.00;101926.91;5024065;28;20743;-73
2023/01/22 06:41:26;;;;;;;14.07;7.30;;;;;;;-0.93;100.00;101936.34;5027284;28;20209;-72
2023/01/22 06:43:59;;;;;;;13.03;7.33;;;;;;;-0.93;100.00;101932.88;4990714;28;20205;-73
2023/01/22 06:46:26;;;;;;;15.20;7.83;;;;;;;-0.93;100.00;101932.88;4996517;28;20199;-73
2023/01/22 06:49:01;;;;;;;11.67;6.30;;;;;;;-0.93;100.00;101943.13;5012465;28;20220;-72
2023/01/22 06:51:29;;;;;;;12.67;7.20;;;;;;;-0.93;100.00;101940.56;4989418;28;20658;-72
2023/01/22 06:53:55;;;;;;;15.33;7.37;;;;;;;-0.94;100.00;101942.25;5008010;28;20692;-72
2023/01/22 06:56:22;;;;;;;12.10;7.13;;;;;;;-0.93;100.00;101948.25;5011905;28;20205;-73
2023/01/22 06:58:50;;;;;;;14.90;6.63;;;;;;;-0.94;100.00;101949.94;4993138;28;20216;-73
2023/01/22 07:01:17;;;;;;;15.37;7.50;;;;;;;-0.93;100.00;101950.81;5017526;28;20294;-72
2023/01/22 07:03:44;;;;;;;13.77;7.73;;;;;;;-0.96;100.00;101955.00;5017883;28;20207;-73
2023/01/22 07:06:12;;;;;;;13.23;7.37;;;;;;;-0.94;100.00;101955.06;5006827;28;20206;-73
2023/01/22 07:08:39;;;;;;;14.20;7.60;;;;;;;-0.93;100.00;101958.47;5004930;28;20204;-73
2023/01/22 07:11:06;;;;;;;12.13;6.57;;;;;;;-0.94;100.00;101972.13;5011742;28;20195;-72
2023/01/22 07:13:32;;;;;;;13.97;8.00;;;;;;;-0.94;100.00;101977.25;5010318;28;20201;-73
2023/01/22 07:16:02;;;;;;;15.20;7.83;;;;;;;-0.94;100.00;101983.22;5011123;28;20197;-73
2023/01/22 07:18:30;;;;;;;18.47;7.70;;;;;;;-0.94;100.00;101987.47;5000531;28;20197;-73
2023/01/22 07:21:00;;;;;;;12.23;7.13;;;;;;;-0.93;100.00;101987.56;5008752;28;20369;-73
2023/01/22 07:23:32;;;;;;;14.57;7.53;;;;;;;-0.94;100.00;101996.03;5011452;28;20254;-72
2023/01/22 07:25:58;;;;;;;12.63;7.20;;;;;;;-0.93;100.00;101999.47;5011641;28;20561;-73
2023/01/22 07:28:24;;;;;;;11.17;6.33;;;;;;;-0.92;100.00;102001.22;5013971;28;20197;-73
2023/01/22 07:30:51;;;;;;;13.37;7.80;;;;;;;-0.92;100.00;101994.41;4993197;28;20199;-73
2023/01/22 07:33:17;;;;;;;10.53;6.23;;;;;;;-0.91;100.00;101995.31;5003571;28;20212;-73
2023/01/22 07:35:53;;;;;;;11.40;6.87;;;;;;;-0.92;100.00;101996.09;5005368;28;20211;-73
2023/01/22 07:38:19;;;;;;;13.10;7.27;;;;;;;-0.90;100.00;102002.16;5004046;28;20279;-73
2023/01/22 07:40:46;;;;;;;13.90;7.40;;;;;;;-0.91;100.00;102003.84;5009325;28;20254;-73
2023/01/22 07:43:13;;;;;;;18.23;6.80;;;;;;;-0.90;100.00;102008.16;5019895;28;20781;-73
2023/01/22 07:45:40;;;;;;;18.47;7.93;;;;;;;-0.89;100.00;102007.34;4997693;28;20677;-73
2023/01/22 07:48:09;;;;;;;10.67;6.63;;;;;;;-0.90;100.00;102008.16;5014545;28;20745;-74
2023/01/22 07:50:38;;;;;;;13.97;7.53;;;;;;;-0.87;100.00;102015.09;5015977;28;20215;-73
2023/01/22 07:53:07;;;;;;;11.40;6.77;;;;;;;-0.88;100.00;102015.91;5010117;28;20207;-73
2023/01/22 07:55:33;;;;;;;13.47;7.47;;;;;;;-0.85;100.00;102019.47;5008938;28;20207;-73
2023/01/22 07:58:01;;;;;;;12.77;7.67;;;;;;;-0.85;100.00;102023.72;5010288;28;20204;-73
2023/01/22 08:00:27;;;;;;;11.50;7.00;;;;;;;-0.86;100.00;102017.72;4989592;28;20705;-73
2023/01/22 08:02:53;;;;;;;14.20;8.00;;;;;;;-0.84;100.00;102030.59;5008826;28;20205;-73
2023/01/22 08:05:20;;;;;;;13.63;7.90;;;;;;;-0.83;100.00;102034.91;5011567;28;20212;-73
2023/01/22 08:07:46;;;;;;;12.30;7.27;;;;;;;-0.82;100.00;102040.09;5003652;28;20559;-73
2023/01/22 08:10:15;;;;;;;14.13;7.33;;;;;;;-0.81;100.00;102048.63;5007682;28;20208;-73
2023/01/22 08:12:42;;;;;;;14.03;7.10;;;;;;;-0.82;100.00;102047.78;5016596;28;20271;-73
2023/01/22 08:15:10;;;;;;;11.57;7.30;;;;;;;-0.79;100.00;102047.03;5006102;28;20197;-73
2023/01/22 08:17:38;;;;;;;13.67;8.40;;;;;;;-0.79;100.00;102054.72;5008084;28;20459;-73
2023/01/22 08:20:05;;;;;;;17.80;8.37;;;;;;;-0.79;100.00;102054.72;5008337;28;20214;-73
2023/01/22 08:22:32;;;;;;;15.90;7.60;;;;;;;-0.80;100.00;102053.84;5006296;28;20570;-73
2023/01/22 08:24:58;;;;;;;14.30;7.13;;;;;;;-0.81;100.00;102049.53;5007555;28;20197;-73
2023/01/22 08:27:26;;;;;;;17.40;8.10;;;;;;;-0.81;100.00;102058.88;5001426;28;20204;-73
2023/01/22 08:29:54;;;;;;;16.90;7.40;;;;;;;-0.81;100.00;102056.31;5009688;28;20216;-73
2023/01/22 08:32:20;;;;;;;15.87;8.40;;;;;;;-0.81;100.00;102049.53;5010163;28;20197;-73
2023/01/22 08:34:46;;;;;;;16.50;8.03;;;;;;;-0.81;100.00;102062.34;5007181;28;20201;-73
2023/01/22 08:37:13;;;;;;;14.60;7.70;;;;;;;-0.80;100.00;102058.94;5008054;28;20373;-73
2023/01/22 08:39:39;;;;;;;16.20;8.47;;;;;;;-0.80;100.00;102064.06;5006399;28;20228;-73
2023/01/22 08:42:08;;;;;;;19.67;8.87;;;;;;;-0.80;100.00;102068.34;5009469;28;20219;-73
2023/01/22 08:44:36;;;;;;;12.43;7.80;;;;;;;-0.77;100.00;102065.91;5007558;28;20196;-75
2023/01/22 08:47:03;;;;;;;14.00;7.23;;;;;;;-0.75;100.00;102068.53;5009031;28;20217;-73
2023/01/22 08:49:30;;;;;;;14.63;8.27;;;;;;;-0.74;100.00;102071.16;5008677;28;20736;-73
2023/01/22 08:51:57;;;;;;;13.07;8.17;;;;;;;-0.72;100.00;102072.13;5009540;28;20874;-73
2023/01/22 08:54:25;;;;;;;13.10;7.83;;;;;;;-0.72;100.00;102077.22;5008773;28;20192;-73
2023/01/22 08:56:51;;;;;;;14.57;7.23;;;;;;;-0.75;100.00;102082.22;5007366;28;20207;-73
2023/01/22 08:59:18;;;;;;;15.00;7.50;;;;;;;-0.75;100.00;102084.78;5007381;28;20224;-73
2023/01/22 09:01:47;;;;;;;17.17;7.23;;;;;;;-0.72;100.00;102079.78;5006719;28;20224;-72
2023/01/22 09:04:14;;;;;;;12.73;7.33;;;;;;;-0.71;100.00;102083.22;5003756;28;20196;-73
2023/01/22 09:06:40;;;;;;;14.70;7.30;;;;;;;-0.71;100.00;102094.34;5004321;28;20208;-73
2023/01/22 09:09:07;;;;;;;25.87;12.07;;;;;;;-0.72;100.00;102096.81;5007014;28;20231;-73
2023/01/22 09:11:34;;;;;;;28.07;11.00;;;;;;;-0.68;100.00;102089.34;5009965;28;20558;-74
2023/01/22 09:14:01;;;;;;;15.77;7.43;;;;;;;-0.65;100.00;102093.72;5008689;28;20285;-73
2023/01/22 09:16:28;;;;;;;15.97;8.23;;;;;;;-0.64;100.00;102098.91;5011538;28;20680;-73
2023/01/22 09:18:55;;;;;;;12.83;7.43;;;;;;;-0.63;100.00;102090.44;5008052;28;20588;-73
2023/01/22 09:21:22;;;;;;;17.07;8.30;;;;;;;-0.61;100.00;102090.50;5008792;28;20217;-73
2023/01/22 09:23:48;;;;;;;17.33;9.67;;;;;;;-0.57;100.00;102097.50;5005512;28;20584;-73
2023/01/22 09:26:15;;;;;;;14.43;7.57;;;;;;;-0.53;100.00;102099.38;5011459;28;20197;-73
2023/01/22 09:28:41;;;;;;;12.30;7.50;;;;;;;-0.51;100.00;102097.78;5013609;28;20200;-73
2023/01/22 09:31:11;;;;;;;10.77;5.97;;;;;;;-0.47;100.00;102101.34;5010670;28;20680;-73
2023/01/22 09:33:38;;;;;;;11.73;6.93;;;;;;;-0.44;100.00;102101.44;5009061;28;20588;-73
2023/01/22 09:36:10;;;;;;;9.10;5.27;;;;;;;-0.44;100.00;102098.88;5013381;28;20204;-73
2023/01/22 09:38:37;;;;;;;11.53;7.07;;;;;;;-0.39;100.00;102098.31;5007995;28;20676;-73
2023/01/22 09:41:13;;;;;;;10.73;5.90;;;;;;;-0.39;100.00;102098.31;5008291;28;20269;-73
2023/01/22 09:43:47;;;;;;;10.80;7.07;;;;;;;-0.37;100.00;102100.91;4995173;28;20225;-73
2023/01/22 09:46:19;;;;;;;11.67;7.23;;;;;;;-0.33;100.00;102107.06;5000930;28;20204;-73
2023/01/22 09:48:50;;;;;;;11.30;6.80;;;;;;;-0.36;100.00;102107.78;5004591;28;20224;-73
2023/01/22 09:51:21;;;;;;;10.70;6.93;;;;;;;-0.36;100.00;102106.94;5004986;28;20201;-74
2023/01/22 09:53:52;;;;;;;11.33;6.30;;;;;;;-0.37;100.00;102106.03;5006032;28;20541;-73
2023/01/22 09:56:21;;;;;;;11.17;6.67;;;;;;;-0.32;100.00;102098.53;5005661;28;20197;-73
2023/01/22 09:58:49;;;;;;;10.57;6.57;;;;;;;-0.27;100.00;102099.63;4999223;28;20224;-74
2023/01/22 10:01:18;;;;;;;11.23;7.03;;;;;;;-0.25;100.00;102105.69;5006402;28;20223;-73
2023/01/22 10:03:48;;;;;;;12.77;6.73;;;;;;;-0.27;100.00;102103.03;5021905;28;20203;-75
2023/01/22 10:06:20;;;;;;;10.13;6.17;;;;;;;-0.28;100.00;102110.66;4990790;28;20759;-73
2023/01/22 10:08:57;;;;;;;10.97;6.50;;;;;;;-0.26;100.00;102109.06;5002809;28;20250;-74
2023/01/22 10:11:23;;;;;;;11.07;5.97;;;;;;;-0.23;100.00;102107.50;5005405;28;20200;-73
2023/01/22 10:13:54;;;;;;;11.30;6.63;;;;;;;-0.20;100.00;102101.63;5014920;28;20289;-74
2023/01/22 10:16:20;;;;;;;12.43;6.43;;;;;;;-0.21;100.00;102099.88;5002365;28;20275;-73
2023/01/22 10:18:50;;;;;;;11.73;6.60;;;;;;;-0.18;100.00;102099.97;5004147;28;20224;-73
2023/01/22 10:21:21;;;;;;;11.60;6.77;;;;;;;-0.20;100.00;102097.34;5007844;28;20216;-73
2023/01/22 10:23:49;;;;;;;13.30;7.27;;;;;;;-0.18;100.00;102101.69;5014704;28;20200;-73
2023/01/22 10:26:20;;;;;;;12.10;7.27;;;;;;;-0.15;100.00;102105.25;5014304;28;20273;-73
2023/01/22 10:28:50;;;;;;;11.07;6.40;;;;;;;-0.13;100.00;102101.06;5008028;28;20215;-73
2023/01/22 10:31:22;;;;;;;11.43;7.33;;;;;;;-0.08;100.00;102109.81;5014974;28;20538;-74
2023/01/22 10:33:55;;;;;;;12.03;6.97;;;;;;;-0.09;100.00;102108.09;5008469;28;20201;-73
2023/01/22 10:36:23;;;;;;;12.97;8.30;;;;;;;0.01;100.00;102118.72;5006647;28;20200;-73
2023/01/22 10:38:49;;;;;;;12.20;7.20;;;;;;;0.02;100.00;102105.06;5013521;28;20227;-73
2023/01/22 10:41:17;;;;;;;11.77;6.90;;;;;;;0.02;100.00;102102.50;5003763;28;20941;-73
2023/01/22 10:43:44;;;;;;;11.10;7.27;;;;;;;-0.03;100.00;102110.00;5008448;28;20193;-73
2023/01/22 10:46:19;;;;;;;11.73;7.30;;;;;;;0.02;100.00;102108.53;5006054;28;20208;-73
2023/01/22 10:48:57;;;;;;;12.33;8.27;;;;;;;0.03;100.00;102105.13;4989682;28;20760;-73
2023/01/22 10:51:31;;;;;;;14.30;7.73;;;;;;;0.09;100.00;102107.06;5006708;28;20216;-73
2023/01/22 10:53:59;;;;;;;13.50;8.27;;;;;;;0.07;100.00;102114.72;5006065;28;20225;-73
2023/01/22 10:56:29;;;;;;;11.47;7.37;;;;;;;0.12;100.00;102120.00;5005855;28;20200;-73
2023/01/22 10:58:57;;;;;;;17.53;9.27;;;;;;;0.11;100.00;102126.84;5004950;28;20578;-73
2023/01/22 11:01:31;;;;;;;13.17;7.23;;;;;;;0.02;100.00;102125.56;5005582;28;20221;-73
2023/01/22 11:03:58;;;;;;;15.27;8.77;;;;;;;0.05;100.00;102124.00;5005396;28;20720;-73
2023/01/22 11:06:29;;;;;;;12.77;7.30;;;;;;;0.03;100.00;102117.06;5004905;28;20199;-73
2023/01/22 11:09:04;;;;;;;15.23;8.17;;;;;;;0.03;100.00;102115.38;5006557;28;20594;-73
2023/01/22 11:11:36;;;;;;;18.03;8.77;;;;;;;0.07;100.00;102116.38;5009097;28;20285;-73
2023/01/22 11:14:10;;;;;;;19.33;10.07;;;;;;;0.12;100.00;102112.31;5005407;28;20531;-73
2023/01/22 11:16:39;;;;;;;12.63;8.27;;;;;;;0.11;100.00;102114.00;5006257;28;20212;-73
2023/01/22 11:19:11;;;;;;;16.73;8.77;;;;;;;0.16;100.00;102116.78;5007307;28;20217;-73
2023/01/22 11:21:44;;;;;;;18.97;10.10;;;;;;;0.18;100.00;102112.56;5006188;28;20227;-73
2023/01/22 11:24:14;;;;;;;17.03;9.60;;;;;;;0.10;100.00;102119.06;5009620;28;20196;-73
2023/01/22 11:26:55;;;;;;;22.63;11.33;;;;;;;0.07;100.00;102122.41;5007238;28;20598;-73